createdAt,value
2019-03-12T00:00:12.678Z,96665.83
2019-03-12T00:02:39.887Z,96671.75
2019-03-12T00:05:07.715Z,96677.99
2019-03-12T00:07:34.203Z,96682.03
2019-03-12T00:10:00.519Z,96692.48
2019-03-12T00:12:26.905Z,96696.47
2019-03-12T00:14:53.307Z,96697.48
2019-03-12T00:17:19.651Z,96692.09
2019-03-12T00:19:45.958Z,96691.02
2019-03-12T00:22:12.546Z,96692.84
2019-03-12T00:24:38.997Z,96691.50
2019-03-12T00:27:05.447Z,96685.86
2019-03-12T00:29:31.819Z,96691.19
2019-03-12T00:31:58.682Z,96691.99
2019-03-12T00:34:25.054Z,96690.91
2019-03-12T00:36:51.469Z,96690.37
2019-03-12T00:39:17.771Z,96691.97
2019-03-12T00:41:44.299Z,96686.00
2019-03-12T00:44:10.809Z,96691.00
2019-03-12T00:46:37.118Z,96699.20
2019-03-12T00:49:03.400Z,96700.97
2019-03-12T00:51:29.900Z,96701.17
2019-03-12T00:53:56.334Z,96711.56
2019-03-12T00:56:22.630Z,96716.63
2019-03-12T00:58:48.971Z,96706.63
2019-03-12T01:01:15.489Z,96708.51
2019-03-12T01:03:42.110Z,96721.09
2019-03-12T01:06:08.645Z,96718.16
2019-03-12T01:08:35.131Z,96725.92
2019-03-12T01:11:01.502Z,96732.09
2019-03-12T01:13:27.902Z,96727.52
2019-03-12T01:15:54.310Z,96725.92
2019-03-12T01:18:21.058Z,96734.80
2019-03-12T01:20:47.582Z,96737.28
2019-03-12T01:23:14.006Z,96750.98
2019-03-12T01:25:40.595Z,96770.85
2019-03-12T01:28:07.322Z,96769.82
2019-03-12T01:30:33.671Z,96772.84
2019-03-12T01:33:00.092Z,96777.48
2019-03-12T01:35:26.545Z,96780.45
2019-03-12T01:37:52.839Z,96779.11
2019-03-12T01:40:19.179Z,96782.08
2019-03-12T01:42:45.455Z,96785.30
2019-03-12T01:45:13.311Z,96780.45
2019-03-12T01:47:39.614Z,96790.59
2019-03-12T01:50:13.067Z,96789.77
2019-03-12T01:52:39.659Z,96794.02
2019-03-12T01:55:10.613Z,96795.03
2019-03-12T01:57:37.345Z,96804.66
2019-03-12T02:00:11.767Z,96803.83
2019-03-12T02:02:38.389Z,96804.06
2019-03-12T02:05:05.347Z,96810.23
2019-03-12T02:07:31.836Z,96811.02
2019-03-12T02:09:58.322Z,96814.51
2019-03-12T02:12:24.836Z,96811.28
2019-03-12T02:14:51.515Z,96817.73
2019-03-12T02:17:17.950Z,96819.93
2019-03-12T02:19:44.445Z,96822.84
2019-03-12T02:22:10.915Z,96820.47
2019-03-12T02:24:37.315Z,96832.23
2019-03-12T02:27:03.965Z,96835.45
2019-03-12T02:29:30.348Z,96839.25
2019-03-12T02:31:56.827Z,96845.42
2019-03-12T02:34:23.223Z,96848.34
2019-03-12T02:36:49.634Z,96852.36
2019-03-12T02:39:16.108Z,96861.75
2019-03-12T02:41:42.562Z,96860.41
2019-03-12T02:44:08.995Z,96863.09
2019-03-12T02:46:35.411Z,96866.04
2019-03-12T02:49:01.836Z,96866.63
2019-03-12T02:51:28.350Z,96871.73
2019-03-12T02:53:54.730Z,96877.92
2019-03-12T02:56:21.248Z,96880.38
2019-03-12T02:58:47.632Z,96884.66
2019-03-12T03:01:13.970Z,96891.91
2019-03-12T03:03:40.355Z,96891.36
2019-03-12T03:06:20.469Z,96894.30
2019-03-12T03:08:46.983Z,96899.93
2019-03-12T03:11:13.564Z,96904.50
2019-03-12T03:13:39.853Z,96906.64
2019-03-12T03:16:06.379Z,96916.30
2019-03-12T03:18:32.944Z,96919.50
2019-03-12T03:20:59.582Z,96919.98
2019-03-12T03:23:25.903Z,96921.59
2019-03-12T03:25:52.154Z,96926.94
2019-03-12T03:28:18.489Z,96931.77
2019-03-12T03:30:44.985Z,96926.67
2019-03-12T03:33:11.683Z,96948.67
2019-03-12T03:35:38.077Z,96940.36
2019-03-12T03:38:04.388Z,96945.72
2019-03-12T03:40:30.845Z,96952.44
2019-03-12T03:42:57.536Z,96957.80
2019-03-12T03:45:23.960Z,96953.52
2019-03-12T03:47:50.588Z,96965.33
2019-03-12T03:50:17.567Z,96964.27
2019-03-12T03:52:44.069Z,96964.84
2019-03-12T03:55:16.268Z,96976.34
2019-03-12T03:57:43.379Z,96976.66
2019-03-12T04:00:22.506Z,96981.22
2019-03-12T04:02:49.251Z,96982.56
2019-03-12T04:05:16.623Z,96987.68
2019-03-12T04:07:43.142Z,96993.06
2019-03-12T04:10:11.681Z,96993.63
2019-03-12T04:12:38.263Z,97004.36
2019-03-12T04:15:12.310Z,97000.89
2019-03-12T04:17:38.636Z,97019.16
2019-03-12T04:20:08.945Z,97017.28
2019-03-12T04:22:35.263Z,97026.18
2019-03-12T04:25:02.731Z,97031.55
2019-03-12T04:27:29.302Z,97031.81
2019-03-12T04:29:55.850Z,97040.09
2019-03-12T04:32:22.223Z,97037.41
2019-03-12T04:34:48.683Z,97043.58
2019-03-12T04:37:15.005Z,97043.58
2019-03-12T04:39:41.393Z,97045.45
2019-03-12T04:42:08.188Z,97048.14
2019-03-12T04:44:34.572Z,97045.45
2019-03-12T04:47:01.163Z,97049.25
2019-03-12T04:49:27.464Z,97058.09
2019-03-12T04:51:54.031Z,97058.09
2019-03-12T04:54:20.320Z,97062.36
2019-03-12T04:56:46.953Z,97062.89
2019-03-12T04:59:13.334Z,97062.66
2019-03-12T05:01:43.151Z,97071.52
2019-03-12T05:04:09.770Z,97064.29
2019-03-12T05:06:36.240Z,97077.17
2019-03-12T05:09:06.983Z,97082.05
2019-03-12T05:11:33.350Z,97078.02
2019-03-12T05:14:23.355Z,97076.68
2019-03-12T05:16:52.527Z,97084.14
2019-03-12T05:19:18.954Z,97089.25
2019-03-12T05:21:45.407Z,97090.33
2019-03-12T05:24:11.954Z,97094.61
2019-03-12T05:26:38.336Z,97100.24
2019-03-12T05:29:04.634Z,97104.26
2019-03-12T05:31:31.079Z,97107.74
2019-03-12T05:33:57.651Z,97104.25
2019-03-12T05:36:24.241Z,97110.38
2019-03-12T05:38:50.547Z,97112.78
2019-03-12T05:41:16.871Z,97112.51
2019-03-12T05:43:43.386Z,97117.30
2019-03-12T05:46:09.987Z,97123.47
2019-03-12T05:48:36.387Z,97127.74
2019-03-12T05:51:03.091Z,97132.52
2019-03-12T05:53:50.918Z,97138.91
2019-03-12T05:56:17.409Z,97139.38
2019-03-12T05:58:43.891Z,97146.27
2019-03-12T06:01:10.277Z,97143.03
2019-03-12T06:03:36.815Z,97143.84
2019-03-12T06:06:03.602Z,97151.09
2019-03-12T06:08:30.137Z,97146.53
2019-03-12T06:10:56.542Z,97157.83
2019-03-12T06:13:22.975Z,97157.27
2019-03-12T06:15:53.013Z,97161.23
2019-03-12T06:18:20.270Z,97160.84
2019-03-12T06:20:48.564Z,97160.95
2019-03-12T06:23:15.349Z,97160.80
2019-03-12T06:25:42.402Z,97154.77
2019-03-12T06:28:08.973Z,97161.65
2019-03-12T06:30:37.375Z,97171.42
2019-03-12T06:33:06.056Z,97174.48
2019-03-12T06:35:54.150Z,97174.91
2019-03-12T06:38:21.573Z,97180.75
2019-03-12T06:40:50.480Z,97193.38
2019-03-12T06:43:16.913Z,97198.58
2019-03-12T06:46:01.728Z,97204.05
2019-03-12T06:48:30.202Z,97210.86
2019-03-12T06:51:01.119Z,97223.85
2019-03-12T06:53:44.611Z,97232.02
2019-03-12T06:56:12.819Z,97236.14
2019-03-12T06:58:56.180Z,97247.28
2019-03-12T07:01:36.360Z,97261.55
2019-03-12T07:04:02.903Z,97257.24
2019-03-12T07:06:47.491Z,97267.67
2019-03-12T07:09:14.013Z,97265.23
2019-03-12T07:11:54.191Z,97267.84
2019-03-12T07:14:31.235Z,97267.52
2019-03-12T07:16:57.567Z,97264.28
2019-03-12T07:19:31.698Z,97268.57
2019-03-12T07:21:58.164Z,97268.84
2019-03-12T07:24:35.455Z,97272.88
2019-03-12T07:27:03.764Z,97277.98
2019-03-12T07:29:38.057Z,97275.81
2019-03-12T07:32:16.607Z,97277.10
2019-03-12T07:34:48.842Z,97283.27
2019-03-12T07:37:19.903Z,97281.33
2019-03-12T07:40:00.312Z,97274.58
2019-03-12T07:42:34.782Z,97275.05
2019-03-12T07:45:14.877Z,97275.79
2019-03-12T07:47:59.786Z,97282.97
2019-03-12T07:50:26.177Z,97276.47
2019-03-12T07:53:03.099Z,97275.59
2019-03-12T07:55:44.789Z,97277.19
2019-03-12T07:58:34.870Z,97268.05
2019-03-12T08:00:56.283Z,97280.16
2019-03-12T08:03:42.486Z,97280.17
2019-03-12T08:06:27.665Z,97281.80
2019-03-12T08:09:03.514Z,97281.80
2019-03-12T08:11:31.816Z,97289.88
2019-03-12T08:14:13.137Z,97294.71
2019-03-12T08:16:43.976Z,97285.55
2019-03-12T08:19:18.160Z,97291.12
2019-03-12T08:21:49.552Z,97289.15
2019-03-12T08:24:19.470Z,97288.30
2019-03-12T08:26:58.374Z,97290.40
2019-03-12T08:29:29.159Z,97294.13
2019-03-12T08:32:03.350Z,97307.80
2019-03-12T08:34:46.899Z,97299.16
2019-03-12T08:37:15.370Z,97289.13
2019-03-12T08:40:00.650Z,97299.56
2019-03-12T08:42:37.788Z,97296.89
2019-03-12T08:45:11.069Z,97294.10
2019-03-12T08:47:56.015Z,97295.87
2019-03-12T08:50:27.493Z,97300.61
2019-03-12T08:53:04.787Z,97310.87
2019-03-12T08:55:31.155Z,97313.50
2019-03-12T08:58:16.108Z,97303.43
2019-03-12T09:00:56.823Z,97316.50
2019-03-12T09:03:35.147Z,97313.81
2019-03-12T09:06:21.432Z,97318.95
2019-03-12T09:08:53.985Z,97318.17
2019-03-12T09:11:31.165Z,97315.75
2019-03-12T09:14:08.356Z,97321.63
2019-03-12T09:16:36.697Z,97310.49
2019-03-12T09:19:03.353Z,97311.52
2019-03-12T09:21:46.858Z,97301.66
2019-03-12T09:24:19.111Z,97298.45
2019-03-12T09:27:01.060Z,97294.41
2019-03-12T09:29:45.971Z,97300.19
2019-03-12T09:32:23.428Z,97304.30
2019-03-12T09:35:07.486Z,97305.60
2019-03-12T09:37:35.868Z,97312.28
2019-03-12T09:40:38.139Z,97313.92
2019-03-12T09:43:12.763Z,97312.06
2019-03-12T09:45:47.824Z,97320.70
2019-03-12T09:48:33.168Z,97316.42
2019-03-12T09:51:11.313Z,97310.00
2019-03-12T09:53:57.171Z,97303.30
2019-03-12T09:56:27.152Z,97315.17
2019-03-12T09:59:13.057Z,97308.52
2019-03-12T10:01:59.683Z,97303.40
2019-03-12T10:04:42.091Z,97310.65
2019-03-12T10:07:14.764Z,97307.91
2019-03-12T10:09:48.934Z,97309.87
2019-03-12T10:12:19.081Z,97308.20
2019-03-12T10:14:57.245Z,97305.80
2019-03-12T10:17:35.507Z,97292.59
2019-03-12T10:20:24.794Z,97299.48
2019-03-12T10:22:52.980Z,97299.93
2019-03-12T10:25:38.552Z,97311.13
2019-03-12T10:28:09.168Z,97298.69
2019-03-12T10:30:39.930Z,97296.09
2019-03-12T10:33:26.518Z,97300.18
2019-03-12T10:36:02.064Z,97292.36
2019-03-12T10:39:26.762Z,97294.96
2019-03-12T10:42:00.469Z,97301.66
2019-03-12T10:44:29.801Z,97311.11
2019-03-12T10:47:02.481Z,97318.69
2019-03-12T10:49:37.478Z,97314.95
2019-03-12T10:51:58.927Z,97318.59
2019-03-12T10:54:25.942Z,97325.15
2019-03-12T10:56:53.847Z,97322.83
2019-03-12T10:59:20.913Z,97323.43
2019-03-12T11:01:48.637Z,97326.50
2019-03-12T11:04:15.878Z,97320.80
2019-03-12T11:06:43.861Z,97325.69
2019-03-12T11:09:12.155Z,97321.86
2019-03-12T11:11:40.206Z,97323.18
2019-03-12T11:14:08.106Z,97311.52
2019-03-12T11:16:36.452Z,97301.39
2019-03-12T11:19:04.343Z,97307.33
2019-03-12T11:21:32.831Z,97296.55
2019-03-12T11:24:01.193Z,97296.55
2019-03-12T11:26:29.427Z,97284.34
2019-03-12T11:28:58.062Z,97275.02
2019-03-12T11:31:26.293Z,97298.95
2019-03-12T11:33:54.264Z,97298.55
2019-03-12T11:36:22.497Z,97303.39
2019-03-12T11:38:51.022Z,97301.91
2019-03-12T11:41:19.265Z,97295.72
2019-03-12T11:43:47.907Z,97292.05
2019-03-12T11:46:15.174Z,97292.95
2019-03-12T11:48:43.529Z,97288.52
2019-03-12T11:51:12.011Z,97287.19
2019-03-12T11:53:40.166Z,97284.29
2019-03-12T11:56:07.318Z,97274.35
2019-03-12T11:58:34.470Z,97271.09
2019-03-12T12:01:06.159Z,97274.13
2019-03-12T12:03:33.271Z,97273.34
2019-03-12T12:06:00.881Z,97274.22
2019-03-12T12:08:28.613Z,97268.62
2019-03-12T12:10:56.883Z,97264.97
2019-03-12T12:13:24.468Z,97263.86
2019-03-12T12:15:52.301Z,97272.37
2019-03-12T12:18:19.877Z,97260.73
2019-03-12T12:20:48.439Z,97271.58
2019-03-12T12:23:15.698Z,97266.73
2019-03-12T12:25:44.192Z,97278.20
2019-03-12T12:28:11.993Z,97267.11
2019-03-12T12:30:39.721Z,97267.66
2019-03-12T12:33:07.919Z,97269.09
2019-03-12T12:35:35.542Z,97272.09
2019-03-12T12:38:03.710Z,97279.89
2019-03-12T12:40:31.418Z,97272.29
2019-03-12T12:42:59.772Z,97280.88
2019-03-12T12:45:31.073Z,97279.86
2019-03-12T12:47:59.784Z,97267.52
2019-03-12T12:50:28.145Z,97265.77
2019-03-12T12:52:56.250Z,97256.77
2019-03-12T12:55:23.713Z,97261.01
2019-03-12T12:57:52.335Z,97262.14
2019-03-12T13:00:25.450Z,97260.23
2019-03-12T13:02:53.939Z,97254.80
2019-03-12T13:05:22.737Z,97254.74
2019-03-12T13:07:51.482Z,97259.42
2019-03-12T13:10:24.979Z,97254.48
2019-03-12T13:12:54.682Z,97246.72
2019-03-12T13:15:23.045Z,97248.08
2019-03-12T13:17:51.800Z,97244.99
2019-03-12T13:20:18.739Z,97237.35
2019-03-12T13:22:47.425Z,97238.46
2019-03-12T13:25:16.931Z,97239.58
2019-03-12T13:27:44.936Z,97238.59
2019-03-12T13:30:24.620Z,97244.70
2019-03-12T13:32:52.964Z,97243.48
2019-03-12T13:35:21.567Z,97245.27
2019-03-12T13:37:50.168Z,97243.08
2019-03-12T13:40:24.565Z,97235.41
2019-03-12T13:42:53.070Z,97231.72
2019-03-12T13:45:26.177Z,97234.83
2019-03-12T13:47:54.995Z,97221.50
2019-03-12T13:50:23.298Z,97229.77
2019-03-12T13:52:51.666Z,97219.49
2019-03-12T13:55:19.358Z,97220.70
2019-03-12T13:57:47.735Z,97216.92
2019-03-12T14:00:25.913Z,97209.08
2019-03-12T14:02:54.320Z,97215.95
2019-03-12T14:05:24.147Z,97208.06
2019-03-12T14:07:52.664Z,97205.27
2019-03-12T14:10:26.351Z,97206.72
2019-03-12T14:12:55.518Z,97203.02
2019-03-12T14:15:31.570Z,97199.91
2019-03-12T14:18:00.081Z,97206.80
2019-03-12T14:20:43.519Z,97209.97
2019-03-12T14:23:22.129Z,97207.47
2019-03-12T14:25:50.918Z,97206.08
2019-03-12T14:28:19.325Z,97196.20
2019-03-12T14:30:47.866Z,97201.67
2019-03-12T14:33:16.485Z,97201.86
2019-03-12T14:35:51.437Z,97200.61
2019-03-12T14:38:15.427Z,97194.58
2019-03-12T14:40:43.591Z,97195.50
2019-03-12T14:43:12.055Z,97201.77
2019-03-12T14:45:53.661Z,97198.70
2019-03-12T14:48:45.448Z,97194.73
2019-03-12T14:51:21.039Z,97198.44
2019-03-12T14:53:53.581Z,97194.73
2019-03-12T14:56:21.968Z,97196.95
2019-03-12T14:58:51.425Z,97192.59
2019-03-12T15:01:23.514Z,97186.25
2019-03-12T15:03:51.882Z,97191.11
2019-03-12T15:06:20.381Z,97179.06
2019-03-12T15:08:49.019Z,97172.75
2019-03-12T15:11:17.354Z,97174.34
2019-03-12T15:13:45.813Z,97170.81
2019-03-12T15:16:13.965Z,97172.63
2019-03-12T15:18:42.717Z,97168.78
2019-03-12T15:21:11.113Z,97169.80
2019-03-12T15:23:39.489Z,97161.09
2019-03-12T15:26:08.027Z,97152.28
2019-03-12T15:28:36.481Z,97150.81
2019-03-12T15:31:05.128Z,97153.36
2019-03-12T15:33:33.517Z,97152.70
2019-03-12T15:36:02.049Z,97149.07
2019-03-12T15:38:30.754Z,97146.81
2019-03-12T15:40:58.949Z,97148.15
2019-03-12T15:43:27.186Z,97148.33
2019-03-12T15:45:55.822Z,97142.80
2019-03-12T15:48:23.965Z,97139.89
2019-03-12T15:50:52.362Z,97142.59
2019-03-12T15:53:21.215Z,97148.38
2019-03-12T15:55:50.491Z,97136.94
2019-03-12T15:58:18.986Z,97139.86
2019-03-12T16:00:47.144Z,97140.06
2019-03-12T16:03:15.448Z,97142.13
2019-03-12T16:05:43.773Z,97136.67
2019-03-12T16:08:13.945Z,97137.30
2019-03-12T16:10:42.536Z,97131.19
2019-03-12T16:13:11.515Z,97121.48
2019-03-12T16:15:40.147Z,97129.33
2019-03-12T16:18:08.537Z,97125.87
2019-03-12T16:20:36.669Z,97130.53
2019-03-12T16:23:04.838Z,97123.03
2019-03-12T16:25:32.978Z,97122.53
2019-03-12T16:28:01.611Z,97116.95
2019-03-12T16:30:30.582Z,97119.65
2019-03-12T16:32:59.264Z,97121.30
2019-03-12T16:35:27.643Z,97117.55
2019-03-12T16:37:56.172Z,97114.66
2019-03-12T16:40:24.323Z,97111.25
2019-03-12T16:42:53.216Z,97105.42
2019-03-12T16:45:21.626Z,97109.58
2019-03-12T16:47:50.457Z,97103.45
2019-03-12T16:50:18.885Z,97106.05
2019-03-12T16:52:47.314Z,97098.91
2019-03-12T16:55:18.727Z,97098.76
2019-03-12T16:57:48.484Z,97099.70
2019-03-12T17:00:18.399Z,97098.74
2019-03-12T17:02:46.152Z,97098.88
2019-03-12T17:05:14.733Z,97092.86
2019-03-12T17:07:42.047Z,97091.65
2019-03-12T17:10:20.369Z,97095.56
2019-03-12T17:12:48.828Z,97092.20
2019-03-12T17:15:19.160Z,97090.14
2019-03-12T17:17:47.277Z,97092.67
2019-03-12T17:20:16.185Z,97085.75
2019-03-12T17:22:44.506Z,97085.84
2019-03-12T17:25:12.960Z,97085.06
2019-03-12T17:27:41.521Z,97082.69
2019-03-12T17:30:21.372Z,97088.87
2019-03-12T17:32:49.632Z,97082.44
2019-03-12T17:35:33.356Z,97085.16
2019-03-12T17:38:00.859Z,97086.53
2019-03-12T17:40:28.414Z,97093.57
2019-03-12T17:42:57.025Z,97089.30
2019-03-12T17:45:25.605Z,97086.96
2019-03-12T17:47:53.856Z,97088.34
2019-03-12T17:50:21.338Z,97081.44
2019-03-12T17:52:49.890Z,97089.81
2019-03-12T17:55:18.273Z,97087.13
2019-03-12T17:57:45.920Z,97087.19
2019-03-12T18:00:24.006Z,97085.14
2019-03-12T18:02:52.720Z,97088.17
2019-03-12T18:05:21.134Z,97083.13
2019-03-12T18:07:49.700Z,97092.56
2019-03-12T18:10:18.517Z,97084.89
2019-03-12T18:12:46.306Z,97092.25
2019-03-12T18:15:20.217Z,97094.28
2019-03-12T18:17:48.013Z,97100.31
2019-03-12T18:20:19.915Z,97098.80
2019-03-12T18:22:47.468Z,97101.02
2019-03-12T18:25:34.566Z,97086.52
2019-03-12T18:28:02.087Z,97084.16
2019-03-12T18:30:30.212Z,97087.39
2019-03-12T18:32:58.565Z,97094.38
2019-03-12T18:35:26.012Z,97090.63
2019-03-12T18:37:54.328Z,97084.45
2019-03-12T18:40:24.719Z,97083.66
2019-03-12T18:42:52.291Z,97085.28
2019-03-12T18:45:32.339Z,97079.41
2019-03-12T18:48:00.606Z,97079.16
2019-03-12T18:50:28.838Z,97077.84
2019-03-12T18:52:56.626Z,97073.88
2019-03-12T18:55:37.966Z,97079.86
2019-03-12T18:58:07.125Z,97074.26
2019-03-12T19:00:36.451Z,97074.06
2019-03-12T19:03:04.522Z,97073.86
2019-03-12T19:05:33.118Z,97075.22
2019-03-12T19:08:01.353Z,97078.75
2019-03-12T19:10:29.961Z,97074.45
2019-03-12T19:12:58.631Z,97077.16
2019-03-12T19:15:27.096Z,97075.88
2019-03-12T19:17:55.424Z,97069.17
2019-03-12T19:20:23.971Z,97066.51
2019-03-12T19:22:52.309Z,97067.31
2019-03-12T19:25:26.053Z,97060.34
2019-03-12T19:27:59.671Z,97061.45
2019-03-12T19:30:24.588Z,97054.97
2019-03-12T19:32:55.280Z,97062.22
2019-03-12T19:35:25.942Z,97058.77
2019-03-12T19:37:54.473Z,97053.69
2019-03-12T19:40:38.241Z,97049.41
2019-03-12T19:43:05.832Z,97047.84
2019-03-12T19:45:34.275Z,97043.58
2019-03-12T19:48:02.754Z,97042.54
2019-03-12T19:50:30.922Z,97036.91
2019-03-12T19:52:59.257Z,97023.77
2019-03-12T19:55:48.404Z,97019.73
2019-03-12T19:58:16.728Z,97017.28
2019-03-12T20:00:45.787Z,97013.26
2019-03-12T20:03:15.417Z,97008.74
2019-03-12T20:05:44.179Z,97004.73
2019-03-12T20:08:12.658Z,97002.87
2019-03-12T20:11:23.841Z,97002.06
2019-03-12T20:14:34.847Z,96993.52
2019-03-12T20:17:38.405Z,96995.94
2019-03-12T20:20:41.171Z,96986.81
2019-03-12T20:23:22.944Z,96972.06
2019-03-12T20:26:30.557Z,96964.81
2019-03-12T20:29:41.821Z,96955.98
2019-03-12T20:32:43.493Z,96963.21
2019-03-12T20:35:35.841Z,96959.45
2019-03-12T20:38:56.012Z,96945.47
2019-03-12T20:42:17.779Z,96940.15
2019-03-12T20:45:41.007Z,96943.17
2019-03-12T20:49:10.749Z,96935.16
2019-03-12T20:51:59.795Z,96919.94
2019-03-12T20:54:49.090Z,96918.14
2019-03-12T20:58:13.753Z,96916.86
2019-03-12T21:01:18.946Z,96912.91
2019-03-12T21:04:26.902Z,96924.20
2019-03-12T21:07:43.637Z,96907.09
2019-03-12T21:10:51.405Z,96901.73
2019-03-12T21:13:48.593Z,96888.60
2019-03-12T21:16:40.048Z,96887.28
2019-03-12T21:19:52.295Z,96875.01
2019-03-12T21:22:43.307Z,96868.10
2019-03-12T21:25:37.283Z,96862.48
2019-03-12T21:28:48.050Z,96861.67
2019-03-12T21:31:15.335Z,96856.78
2019-03-12T21:33:42.388Z,96842.78
2019-03-12T21:36:09.239Z,96838.19
2019-03-12T21:38:36.449Z,96835.44
2019-03-12T21:41:03.103Z,96831.16
2019-03-12T21:43:29.776Z,96824.52
2019-03-12T21:45:56.271Z,96823.75
2019-03-12T21:48:23.311Z,96820.88
2019-03-12T21:50:50.050Z,96815.58
2019-03-12T21:53:16.589Z,96819.39
2019-03-12T21:55:43.236Z,96809.52
2019-03-12T21:58:09.859Z,96799.40
2019-03-12T22:00:36.700Z,96793.04
2019-03-12T22:03:03.327Z,96793.31
2019-03-12T22:05:29.976Z,96784.75
2019-03-12T22:07:56.428Z,96775.37
2019-03-12T22:10:22.844Z,96768.13
2019-03-12T22:12:49.512Z,96763.31
2019-03-12T22:15:16.082Z,96766.01
2019-03-12T22:17:42.739Z,96768.69
2019-03-12T22:20:14.279Z,96756.40
2019-03-12T22:22:55.179Z,96760.08
2019-03-12T22:25:21.918Z,96754.64
2019-03-12T22:27:48.352Z,96741.73
2019-03-12T22:30:20.473Z,96738.48
2019-03-12T22:32:46.957Z,96730.13
2019-03-12T22:35:13.388Z,96734.06
2019-03-12T22:37:39.813Z,96728.66
2019-03-12T22:40:10.648Z,96728.34
2019-03-12T22:42:36.984Z,96724.55
2019-03-12T22:45:07.732Z,96715.13
2019-03-12T22:47:34.314Z,96715.64
2019-03-12T22:50:00.686Z,96709.20
2019-03-12T22:52:27.222Z,96696.88
2019-03-12T22:54:53.757Z,96712.40
2019-03-12T22:57:20.291Z,96701.94
2019-03-12T22:59:46.668Z,96698.08
2019-03-12T23:02:13.363Z,96695.59
2019-03-12T23:04:40.012Z,96705.76
2019-03-12T23:07:06.575Z,96694.23
2019-03-12T23:09:33.185Z,96688.52
2019-03-12T23:12:00.028Z,96690.57
2019-03-12T23:14:26.873Z,96679.81
2019-03-12T23:16:53.610Z,96680.82
2019-03-12T23:19:20.458Z,96677.05
2019-03-12T23:21:47.092Z,96681.33
2019-03-12T23:24:14.035Z,96673.55
2019-03-12T23:26:40.775Z,96672.77
2019-03-12T23:29:07.650Z,96671.97
2019-03-12T23:31:34.505Z,96666.66
2019-03-12T23:34:01.202Z,96655.42
2019-03-12T23:36:27.840Z,96651.97
2019-03-12T23:38:54.579Z,96639.91
2019-03-12T23:41:21.322Z,96634.54
2019-03-12T23:43:48.057Z,96624.92
2019-03-12T23:46:14.901Z,96618.51
2019-03-12T23:48:41.793Z,96622.27
2019-03-12T23:51:08.484Z,96622.81
2019-03-12T23:53:35.327Z,96612.60
2019-03-12T23:56:02.067Z,96615.23
2019-03-12T23:58:29.523Z,96610.89
